sensor_id;sensor_type;location;lat;lon;timestamp;pressure;altitude;pressure_sealevel;temperature;humidity
28428;BME280;15662;49.128;8.520;2023-03-16T00:02:14;100906.00;;;8.03;52.51
28428;BME280;15662;49.128;8.520;2023-03-16T00:04:57;100892.78;;;8.01;52.73
28428;BME280;15662;49.128;8.520;2023-03-16T00:15:09;100907.75;;;8.02;53.02
28428;BME280;15662;49.128;8.520;2023-03-16T00:17:37;100923.53;;;8.10;52.75
28428;BME280;15662;49.128;8.520;2023-03-16T00:20:05;100912.09;;;8.11;52.88
28428;BME280;15662;49.128;8.520;2023-03-16T00:22:34;100927.03;;;8.15;52.86
28428;BME280;15662;49.128;8.520;2023-03-16T00:25:01;100932.28;;;8.17;52.52
28428;BME280;15662;49.128;8.520;2023-03-16T00:27:31;100930.53;;;8.16;53.13
28428;BME280;15662;49.128;8.520;2023-03-16T00:29:58;100932.28;;;8.20;53.26
28428;BME280;15662;49.128;8.520;2023-03-16T00:32:30;100930.53;;;8.19;53.11
28428;BME280;15662;49.128;8.520;2023-03-16T00:34:59;100925.25;;;8.19;52.84
28428;BME280;15662;49.128;8.520;2023-03-16T00:37:31;100919.97;;;8.17;53.03
28428;BME280;15662;49.128;8.520;2023-03-16T00:40:04;100920.84;;;8.16;52.72
28428;BME280;15662;49.128;8.520;2023-03-16T00:42:34;100923.53;;;8.15;53.28
28428;BME280;15662;49.128;8.520;2023-03-16T00:45:03;100927.00;;;8.17;53.20
28428;BME280;15662;49.128;8.520;2023-03-16T00:47:34;100923.53;;;8.12;52.89
28428;BME280;15662;49.128;8.520;2023-03-16T00:50:02;100915.63;;;8.13;53.02
28428;BME280;15662;49.128;8.520;2023-03-16T00:52:30;100917.38;;;8.11;53.04
28428;BME280;15662;49.128;8.520;2023-03-16T00:54:59;100916.50;;;8.14;52.80
28428;BME280;15662;49.128;8.520;2023-03-16T00:57:27;100914.75;;;8.13;52.92
28428;BME280;15662;49.128;8.520;2023-03-16T00:59:57;100918.28;;;8.09;52.77
28428;BME280;15662;49.128;8.520;2023-03-16T01:02:26;100908.59;;;8.06;53.21
28428;BME280;15662;49.128;8.520;2023-03-16T01:04:54;100902.47;;;8.01;52.87
28428;BME280;15662;49.128;8.520;2023-03-16T01:07:22;100910.44;;;7.96;52.90
28428;BME280;15662;49.128;8.520;2023-03-16T01:09:50;100899.03;;;7.94;52.91
28428;BME280;15662;49.128;8.520;2023-03-16T01:12:19;100899.88;;;7.95;52.77
28428;BME280;15662;49.128;8.520;2023-03-16T01:14:47;100899.00;;;7.93;52.96
28428;BME280;15662;49.128;8.520;2023-03-16T01:17:16;100905.19;;;7.93;52.72
28428;BME280;15662;49.128;8.520;2023-03-16T01:19:45;100899.06;;;7.88;52.51
28428;BME280;15662;49.128;8.520;2023-03-16T01:22:14;100886.72;;;7.87;52.82
28428;BME280;15662;49.128;8.520;2023-03-16T01:24:43;100883.25;;;7.84;52.99
28428;BME280;15662;49.128;8.520;2023-03-16T01:27:14;100884.13;;;7.83;53.12
28428;BME280;15662;49.128;8.520;2023-03-16T01:29:42;100894.69;;;7.84;53.06
28428;BME280;15662;49.128;8.520;2023-03-16T01:32:11;100885.91;;;7.84;53.21
28428;BME280;15662;49.128;8.520;2023-03-16T01:34:40;100882.38;;;7.83;53.16
28428;BME280;15662;49.128;8.520;2023-03-16T01:37:09;100877.97;;;7.84;52.86
28428;BME280;15662;49.128;8.520;2023-03-16T01:39:59;100868.31;;;7.81;53.08
28428;BME280;15662;49.128;8.520;2023-03-16T01:42:27;100870.94;;;7.81;53.30
28428;BME280;15662;49.128;8.520;2023-03-16T01:44:58;100857.75;;;7.81;53.23
28428;BME280;15662;49.128;8.520;2023-03-16T01:47:35;100867.44;;;7.81;53.32
28428;BME280;15662;49.128;8.520;2023-03-16T01:50:09;100863.91;;;7.77;52.97
28428;BME280;15662;49.128;8.520;2023-03-16T01:52:39;100873.59;;;7.80;53.39
28428;BME280;15662;49.128;8.520;2023-03-16T01:55:10;100876.25;;;7.76;53.57
28428;BME280;15662;49.128;8.520;2023-03-16T01:57:44;100868.38;;;7.70;53.03
28428;BME280;15662;49.128;8.520;2023-03-16T02:00:23;100871.00;;;7.75;52.96
28428;BME280;15662;49.128;8.520;2023-03-16T02:03:17;100869.22;;;7.72;53.21
28428;BME280;15662;49.128;8.520;2023-03-16T02:06:10;100864.84;;;7.71;52.74
28428;BME280;15662;49.128;8.520;2023-03-16T02:08:45;100867.47;;;7.68;53.20
28428;BME280;15662;49.128;8.520;2023-03-16T02:11:15;100855.22;;;7.63;52.82
28428;BME280;15662;49.128;8.520;2023-03-16T02:14:05;100864.00;;;7.63;53.04
28428;BME280;15662;49.128;8.520;2023-03-16T02:16:34;100852.59;;;7.64;53.27
28428;BME280;15662;49.128;8.520;2023-03-16T02:19:03;100847.34;;;7.60;53.13
28428;BME280;15662;49.128;8.520;2023-03-16T02:21:43;100852.56;;;7.63;53.45
28428;BME280;15662;49.128;8.520;2023-03-16T02:24:14;100843.03;;;7.45;53.91
28428;BME280;15662;49.128;8.520;2023-03-16T02:26:56;100840.38;;;7.49;53.51
28428;BME280;15662;49.128;8.520;2023-03-16T02:30:10;100844.69;;;7.57;53.86
28428;BME280;15662;49.128;8.520;2023-03-16T02:32:52;100833.28;;;7.53;53.77
28428;BME280;15662;49.128;8.520;2023-03-16T02:35:22;100839.44;;;7.55;53.75
28428;BME280;15662;49.128;8.520;2023-03-16T02:37:50;100831.53;;;7.55;53.67
28428;BME280;15662;49.128;8.520;2023-03-16T02:40:24;100824.50;;;7.56;53.84
28428;BME280;15662;49.128;8.520;2023-03-16T02:45:48;100843.81;;;7.58;53.69
28428;BME280;15662;49.128;8.520;2023-03-16T02:48:37;100836.81;;;7.52;53.89
28428;BME280;15662;49.128;8.520;2023-03-16T02:51:10;100825.41;;;7.48;54.26
28428;BME280;15662;49.128;8.520;2023-03-16T02:53:38;100825.38;;;7.52;53.99
28428;BME280;15662;49.128;8.520;2023-03-16T02:56:06;100814.81;;;7.53;54.04
28428;BME280;15662;49.128;8.520;2023-03-16T02:58:36;100819.22;;;7.56;53.63
28428;BME280;15662;49.128;8.520;2023-03-16T03:01:09;100817.44;;;7.56;53.54
28428;BME280;15662;49.128;8.520;2023-03-16T03:03:39;100813.06;;;7.55;53.53
28428;BME280;15662;49.128;8.520;2023-03-16T03:06:06;100814.84;;;7.55;54.08
28428;BME280;15662;49.128;8.520;2023-03-16T03:08:36;100818.31;;;7.57;53.65
28428;BME280;15662;49.128;8.520;2023-03-16T03:11:04;100828.88;;;7.57;53.80
28428;BME280;15662;49.128;8.520;2023-03-16T03:13:33;100813.97;;;7.51;53.97
28428;BME280;15662;49.128;8.520;2023-03-16T03:16:01;100825.34;;;7.58;54.22
28428;BME280;15662;49.128;8.520;2023-03-16T03:18:29;100820.09;;;7.59;53.76
28428;BME280;15662;49.128;8.520;2023-03-16T03:20:57;100811.28;;;7.57;53.90
28428;BME280;15662;49.128;8.520;2023-03-16T03:23:25;100809.56;;;7.55;53.99
28428;BME280;15662;49.128;8.520;2023-03-16T03:25:57;100789.31;;;7.55;54.21
28428;BME280;15662;49.128;8.520;2023-03-16T03:28:30;100792.00;;;7.49;54.00
28428;BME280;15662;49.128;8.520;2023-03-16T03:31:00;100803.41;;;7.48;54.00
28428;BME280;15662;49.128;8.520;2023-03-16T03:33:29;100803.44;;;7.49;54.11
28428;BME280;15662;49.128;8.520;2023-03-16T03:35:58;100799.03;;;7.47;54.66
28428;BME280;15662;49.128;8.520;2023-03-16T03:38:30;100789.38;;;7.46;54.51
28428;BME280;15662;49.128;8.520;2023-03-16T03:40:59;100792.88;;;7.48;54.41
28428;BME280;15662;49.128;8.520;2023-03-16T03:43:31;100789.38;;;7.43;54.23
28428;BME280;15662;49.128;8.520;2023-03-16T03:46:00;100801.69;;;7.45;54.02
28428;BME280;15662;49.128;8.520;2023-03-16T03:48:31;100802.56;;;7.46;53.97
28428;BME280;15662;49.128;8.520;2023-03-16T03:50:58;100799.03;;;7.47;54.37
28428;BME280;15662;49.128;8.520;2023-03-16T03:53:44;100788.50;;;7.45;54.11
28428;BME280;15662;49.128;8.520;2023-03-16T03:56:11;100796.38;;;7.48;54.00
28428;BME280;15662;49.128;8.520;2023-03-16T03:58:39;100781.44;;;7.47;54.19
28428;BME280;15662;49.128;8.520;2023-03-16T04:01:07;100780.63;;;7.44;54.32
28428;BME280;15662;49.128;8.520;2023-03-16T04:03:35;100784.09;;;7.46;54.25
28428;BME280;15662;49.128;8.520;2023-03-16T04:06:05;100783.22;;;7.47;54.68
28428;BME280;15662;49.128;8.520;2023-03-16T04:08:36;100773.56;;;7.43;54.11
28428;BME280;15662;49.128;8.520;2023-03-16T04:11:08;100779.72;;;7.45;54.21
28428;BME280;15662;49.128;8.520;2023-03-16T04:13:36;100786.72;;;7.47;54.80
28428;BME280;15662;49.128;8.520;2023-03-16T04:16:05;100778.81;;;7.47;54.73
28428;BME280;15662;49.128;8.520;2023-03-16T04:18:41;100784.97;;;7.46;54.63
28428;BME280;15662;49.128;8.520;2023-03-16T04:21:14;100774.41;;;7.49;54.37
28428;BME280;15662;49.128;8.520;2023-03-16T04:23:48;100778.81;;;7.50;54.47
28428;BME280;15662;49.128;8.520;2023-03-16T04:26:17;100772.63;;;7.53;54.30
28428;BME280;15662;49.128;8.520;2023-03-16T04:28:47;100777.03;;;7.51;53.98
28428;BME280;15662;49.128;8.520;2023-03-16T04:31:17;100777.88;;;7.53;53.98
28428;BME280;15662;49.128;8.520;2023-03-16T04:33:47;100778.78;;;7.55;54.47
28428;BME280;15662;49.128;8.520;2023-03-16T04:36:16;100783.19;;;7.55;53.97
28428;BME280;15662;49.128;8.520;2023-03-16T04:38:44;100773.47;;;7.54;54.25
28428;BME280;15662;49.128;8.520;2023-03-16T04:41:12;100766.50;;;7.49;54.21
28428;BME280;15662;49.128;8.520;2023-03-16T04:43:49;100772.63;;;7.52;54.57
28428;BME280;15662;49.128;8.520;2023-03-16T04:46:20;100783.19;;;7.48;54.01
28428;BME280;15662;49.128;8.520;2023-03-16T04:48:48;100774.41;;;7.48;54.26
28428;BME280;15662;49.128;8.520;2023-03-16T04:51:17;100779.69;;;7.48;54.61
28428;BME280;15662;49.128;8.520;2023-03-16T04:53:57;100770.03;;;7.45;53.97
28428;BME280;15662;49.128;8.520;2023-03-16T04:56:33;100784.13;;;7.44;54.37
28428;BME280;15662;49.128;8.520;2023-03-16T04:59:05;100764.78;;;7.45;54.37
28428;BME280;15662;49.128;8.520;2023-03-16T05:01:43;100768.31;;;7.44;54.31
28428;BME280;15662;49.128;8.520;2023-03-16T05:04:13;100760.41;;;7.41;54.49
28428;BME280;15662;49.128;8.520;2023-03-16T05:06:47;100767.44;;;7.41;54.52
28428;BME280;15662;49.128;8.520;2023-03-16T05:09:16;100774.47;;;7.42;54.85
28428;BME280;15662;49.128;8.520;2023-03-16T05:11:44;100762.16;;;7.38;54.83
28428;BME280;15662;49.128;8.520;2023-03-16T05:14:12;100773.59;;;7.41;55.11
28428;BME280;15662;49.128;8.520;2023-03-16T05:16:53;100763.06;;;7.37;54.60
28428;BME280;15662;49.128;8.520;2023-03-16T05:19:22;100750.81;;;7.30;54.87
28428;BME280;15662;49.128;8.520;2023-03-16T05:21:50;100756.97;;;7.30;54.87
28428;BME280;15662;49.128;8.520;2023-03-16T05:24:18;100748.19;;;7.30;54.99
28428;BME280;15662;49.128;8.520;2023-03-16T05:26:46;100762.25;;;7.27;55.18
28428;BME280;15662;49.128;8.520;2023-03-16T05:29:16;100753.47;;;7.25;54.97
28428;BME280;15662;49.128;8.520;2023-03-16T05:31:45;100761.34;;;7.34;54.59
28428;BME280;15662;49.128;8.520;2023-03-16T05:34:17;100763.09;;;7.35;54.67
28428;BME280;15662;49.128;8.520;2023-03-16T05:36:45;100748.09;;;7.39;54.92
28428;BME280;15662;49.128;8.520;2023-03-16T05:39:17;100751.63;;;7.39;55.08
28428;BME280;15662;49.128;8.520;2023-03-16T05:41:47;100746.34;;;7.38;55.05
28428;BME280;15662;49.128;8.520;2023-03-16T05:44:25;100755.97;;;7.43;54.80
28428;BME280;15662;49.128;8.520;2023-03-16T05:47:19;100748.09;;;7.42;54.64
28428;BME280;15662;49.128;8.520;2023-03-16T05:49:54;100748.97;;;7.44;54.92
28428;BME280;15662;49.128;8.520;2023-03-16T05:52:30;100753.31;;;7.46;54.60
28428;BME280;15662;49.128;8.520;2023-03-16T05:55:04;100754.19;;;7.48;54.28
28428;BME280;15662;49.128;8.520;2023-03-16T05:57:34;100746.28;;;7.50;54.57
28428;BME280;15662;49.128;8.520;2023-03-16T06:00:05;100748.00;;;7.53;54.71
28428;BME280;15662;49.128;8.520;2023-03-16T06:02:49;100742.75;;;7.51;54.61
28428;BME280;15662;49.128;8.520;2023-03-16T06:05:20;100748.03;;;7.51;54.60
28428;BME280;15662;49.128;8.520;2023-03-16T06:07:54;100749.78;;;7.50;54.88
28428;BME280;15662;49.128;8.520;2023-03-16T06:10:23;100741.84;;;7.52;54.37
28428;BME280;15662;49.128;8.520;2023-03-16T06:12:55;100748.88;;;7.55;54.52
28428;BME280;15662;49.128;8.520;2023-03-16T06:15:26;100750.66;;;7.54;54.17
28428;BME280;15662;49.128;8.520;2023-03-16T06:17:59;100755.91;;;7.56;54.52
28428;BME280;15662;49.128;8.520;2023-03-16T06:20:27;100751.47;;;7.58;54.44
28428;BME280;15662;49.128;8.520;2023-03-16T06:22:56;100750.59;;;7.57;54.32
28428;BME280;15662;49.128;8.520;2023-03-16T06:25:24;100753.22;;;7.60;54.88
28428;BME280;15662;49.128;8.520;2023-03-16T06:27:53;100744.44;;;7.61;54.43
28428;BME280;15662;49.128;8.520;2023-03-16T06:30:25;100750.56;;;7.63;54.95
28428;BME280;15662;49.128;8.520;2023-03-16T06:32:55;100741.75;;;7.69;54.80
28428;BME280;15662;49.128;8.520;2023-03-16T06:35:24;100751.38;;;7.74;55.40
28428;BME280;15662;49.128;8.520;2023-03-16T06:38:08;100740.78;;;7.76;55.36
28428;BME280;15662;49.128;8.520;2023-03-16T06:40:54;100748.66;;;7.81;54.97
28428;BME280;15662;49.128;8.520;2023-03-16T06:43:23;100745.97;;;7.87;55.07
28428;BME280;15662;49.128;8.520;2023-03-16T06:45:51;100737.16;;;7.91;55.42
28428;BME280;15662;49.128;8.520;2023-03-16T06:48:21;100742.31;;;8.01;55.12
28428;BME280;15662;49.128;8.520;2023-03-16T06:50:49;100743.09;;;8.11;55.35
28428;BME280;15662;49.128;8.520;2023-03-16T06:53:22;100744.81;;;8.18;54.81
28428;BME280;15662;49.128;8.520;2023-03-16T06:55:53;100753.53;;;8.26;54.97
28428;BME280;15662;49.128;8.520;2023-03-16T06:58:21;100748.19;;;8.31;55.20
28428;BME280;15662;49.128;8.520;2023-03-16T07:00:49;100755.19;;;8.37;55.05
28428;BME280;15662;49.128;8.520;2023-03-16T07:03:19;100745.44;;;8.45;54.68
28428;BME280;15662;49.128;8.520;2023-03-16T07:05:54;100739.25;;;8.49;55.11
28428;BME280;15662;49.128;8.520;2023-03-16T07:08:22;100742.72;;;8.51;55.16
28428;BME280;15662;49.128;8.520;2023-03-16T07:10:55;100749.72;;;8.55;55.08
28428;BME280;15662;49.128;8.520;2023-03-16T07:13:24;100744.50;;;8.50;54.65
28428;BME280;15662;49.128;8.520;2023-03-16T07:15:52;100748.84;;;8.55;54.93
28428;BME280;15662;49.128;8.520;2023-03-16T07:18:22;100761.13;;;8.60;55.18
28428;BME280;15662;49.128;8.520;2023-03-16T07:20:53;100760.19;;;8.64;55.00
28428;BME280;15662;49.128;8.520;2023-03-16T07:23:24;100764.56;;;8.67;55.08
28428;BME280;15662;49.128;8.520;2023-03-16T07:25:57;100761.84;;;8.71;55.36
28428;BME280;15662;49.128;8.520;2023-03-16T07:28:25;100764.50;;;8.71;54.66
28428;BME280;15662;49.128;8.520;2023-03-16T07:30:56;100758.31;;;8.74;55.46
28428;BME280;15662;49.128;8.520;2023-03-16T07:33:39;100756.47;;;8.81;54.78
28428;BME280;15662;49.128;8.520;2023-03-16T07:36:13;100758.16;;;8.86;55.46
28428;BME280;15662;49.128;8.520;2023-03-16T07:38:46;100758.91;;;8.96;54.80
28428;BME280;15662;49.128;8.520;2023-03-16T07:41:14;100758.81;;;9.05;54.91
28428;BME280;15662;49.128;8.520;2023-03-16T07:43:42;100758.72;;;9.13;54.90
28428;BME280;15662;49.128;8.520;2023-03-16T07:46:14;100765.66;;;9.20;54.79
28428;BME280;15662;49.128;8.520;2023-03-16T07:48:45;100763.78;;;9.28;55.20
28428;BME280;15662;49.128;8.520;2023-03-16T07:51:15;100762.78;;;9.37;54.75
28428;BME280;15662;49.128;8.520;2023-03-16T07:53:47;100762.66;;;9.46;55.00
28428;BME280;15662;49.128;8.520;2023-03-16T07:56:22;100762.53;;;9.53;54.67
28428;BME280;15662;49.128;8.520;2023-03-16T07:58:55;100763.28;;;9.62;55.01
28428;BME280;15662;49.128;8.520;2023-03-16T08:01:23;100754.38;;;9.67;54.68
28428;BME280;15662;49.128;8.520;2023-03-16T08:03:51;100764.75;;;9.79;54.70
28428;BME280;15662;49.128;8.520;2023-03-16T08:06:20;100755.81;;;9.85;54.54
28428;BME280;15662;49.128;8.520;2023-03-16T08:08:48;100754.81;;;9.95;54.57
28428;BME280;15662;49.128;8.520;2023-03-16T08:11:23;100741.44;;;10.01;54.47
28428;BME280;15662;49.128;8.520;2023-03-16T08:13:57;100742.16;;;10.11;54.39
28428;BME280;15662;49.128;8.520;2023-03-16T08:17:05;100742.91;;;10.18;54.24
28428;BME280;15662;49.128;8.520;2023-03-16T08:19:37;100721.69;;;10.21;54.10
28428;BME280;15662;49.128;8.520;2023-03-16T08:22:08;100746.34;;;10.23;53.23
28428;BME280;15662;49.128;8.520;2023-03-16T08:24:40;100741.00;;;10.27;53.55
28428;BME280;15662;49.128;8.520;2023-03-16T08:27:10;100748.88;;;10.32;53.38
28428;BME280;15662;49.128;8.520;2023-03-16T08:29:45;100736.38;;;10.39;53.59
28428;BME280;15662;49.128;8.520;2023-03-16T08:32:17;100733.69;;;10.42;53.54
28428;BME280;15662;49.128;8.520;2023-03-16T08:34:46;100751.09;;;10.55;53.43
28428;BME280;15662;49.128;8.520;2023-03-16T08:37:14;100739.53;;;10.59;52.82
28428;BME280;15662;49.128;8.520;2023-03-16T08:39:45;100739.41;;;10.64;53.07
28428;BME280;15662;49.128;8.520;2023-03-16T08:42:17;100740.91;;;10.77;53.04
28428;BME280;15662;49.128;8.520;2023-03-16T08:44:51;100738.13;;;10.83;52.93
28428;BME280;15662;49.128;8.520;2023-03-16T08:47:24;100726.56;;;10.89;52.48
28428;BME280;15662;49.128;8.520;2023-03-16T08:49:54;100731.63;;;10.99;52.94
28428;BME280;15662;49.128;8.520;2023-03-16T08:52:22;100730.59;;;11.05;52.70
28428;BME280;15662;49.128;8.520;2023-03-16T08:54:50;100718.00;;;11.15;52.64
28428;BME280;15662;49.128;8.520;2023-03-16T08:57:33;100723.88;;;11.29;52.72
28428;BME280;15662;49.128;8.520;2023-03-16T09:00:02;100716.59;;;11.37;52.41
28428;BME280;15662;49.128;8.520;2023-03-16T09:02:41;100706.63;;;11.48;52.43
28428;BME280;15662;49.128;8.520;2023-03-16T09:05:13;100716.97;;;11.57;52.08
28428;BME280;15662;49.128;8.520;2023-03-16T09:07:43;100716.88;;;11.62;51.65
28428;BME280;15662;49.128;8.520;2023-03-16T09:10:11;100714.09;;;11.68;51.94
28428;BME280;15662;49.128;8.520;2023-03-16T09:12:44;100709.44;;;11.76;51.57
28428;BME280;15662;49.128;8.520;2023-03-16T09:15:12;100717.22;;;11.85;51.71
28428;BME280;15662;49.128;8.520;2023-03-16T09:17:40;100700.25;;;11.91;51.78
28428;BME280;15662;49.128;8.520;2023-03-16T09:20:14;100701.91;;;11.95;51.27
28428;BME280;15662;49.128;8.520;2023-03-16T09:22:56;100699.13;;;12.00;51.26
28428;BME280;15662;49.128;8.520;2023-03-16T09:25:25;100699.69;;;12.12;51.48
28428;BME280;15662;49.128;8.520;2023-03-16T09:27:54;100690.56;;;12.23;51.20
28428;BME280;15662;49.128;8.520;2023-03-16T09:30:27;100693.72;;;12.35;51.20
28428;BME280;15662;49.128;8.520;2023-03-16T09:32:56;100689.94;;;12.44;51.02
28428;BME280;15662;49.128;8.520;2023-03-16T09:35:26;100696.81;;;12.53;51.57
28428;BME280;15662;49.128;8.520;2023-03-16T09:37:54;100715.84;;;12.69;51.46
28428;BME280;15662;49.128;8.520;2023-03-16T09:40:34;100711.13;;;12.78;51.35
28428;BME280;15662;49.128;8.520;2023-03-16T09:43:38;100716.91;;;12.93;50.87
28428;BME280;15662;49.128;8.520;2023-03-16T09:46:27;100713.16;;;13.00;50.82
28428;BME280;15662;49.128;8.520;2023-03-16T09:48:58;100703.28;;;13.03;50.61
28428;BME280;15662;49.128;8.520;2023-03-16T09:51:47;100705.59;;;13.15;50.51
28428;BME280;15662;49.128;8.520;2023-03-16T09:57:33;100685.66;;;13.29;50.30
28428;BME280;15662;49.128;8.520;2023-03-16T10:00:26;100677.50;;;13.35;50.47
28428;BME280;15662;49.128;8.520;2023-03-16T10:03:14;100670.94;;;13.45;49.65
28428;BME280;15662;49.128;8.520;2023-03-16T10:06:02;100661.03;;;13.50;49.84
28428;BME280;15662;49.128;8.520;2023-03-16T10:08:59;100665.28;;;13.56;49.73
28428;BME280;15662;49.128;8.520;2023-03-16T10:11:51;100662.34;;;13.63;49.31
28428;BME280;15662;49.128;8.520;2023-03-16T10:17:31;100668.28;;;13.72;48.79
28428;BME280;15662;49.128;8.520;2023-03-16T10:20:12;100653.22;;;13.71;48.49
28428;BME280;15662;49.128;8.520;2023-03-16T10:22:44;100652.22;;;13.75;48.93
28428;BME280;15662;49.128;8.520;2023-03-16T10:25:21;100642.34;;;13.77;48.00
28428;BME280;15662;49.128;8.520;2023-03-16T10:27:51;100638.91;;;13.73;48.08
28428;BME280;15662;49.128;8.520;2023-03-16T10:30:33;100648.41;;;13.82;48.15
28428;BME280;15662;49.128;8.520;2023-03-16T10:33:29;100656.22;;;13.86;48.18
28428;BME280;15662;49.128;8.520;2023-03-16T10:36:23;100651.69;;;13.88;48.11
28428;BME280;15662;49.128;8.520;2023-03-16T10:39:03;100655.06;;;13.93;48.11
28428;BME280;15662;49.128;8.520;2023-03-16T10:41:42;100657.31;;;14.06;48.28
28428;BME280;15662;49.128;8.520;2023-03-16T10:54:59;100634.28;;;14.28;47.31
28428;BME280;15662;49.128;8.520;2023-03-16T10:57:33;100637.66;;;14.33;47.19
28428;BME280;15662;49.128;8.520;2023-03-16T11:02:39;100632.81;;;14.44;46.92
28428;BME280;15662;49.128;8.520;2023-03-16T11:05:32;100626.16;;;14.56;46.62
28428;BME280;15662;49.128;8.520;2023-03-16T11:08:19;100616.94;;;14.65;46.37
28428;BME280;15662;49.128;8.520;2023-03-16T11:10:59;100612.91;;;14.77;46.71
28428;BME280;15662;49.128;8.520;2023-03-16T11:13:35;100608.22;;;14.83;46.63
28428;BME280;15662;49.128;8.520;2023-03-16T11:16:24;100617.59;;;14.93;46.10
28428;BME280;15662;49.128;8.520;2023-03-16T11:19:01;100614.78;;;14.96;46.12
28428;BME280;15662;49.128;8.520;2023-03-16T11:22:12;100607.44;;;15.03;45.71
28428;BME280;15662;49.128;8.520;2023-03-16T11:30:41;100597.63;;;15.46;45.70
28428;BME280;15662;49.128;8.520;2023-03-16T11:33:13;100593.69;;;15.55;46.05
28428;BME280;15662;49.128;8.520;2023-03-16T11:44:54;100587.47;;;15.96;44.89
28428;BME280;15662;49.128;8.520;2023-03-16T11:48:08;100587.03;;;16.06;44.53
28428;BME280;15662;49.128;8.520;2023-03-16T11:53:56;100566.75;;;16.20;43.26
28428;BME280;15662;49.128;8.520;2023-03-16T11:56:38;100568.34;;;16.24;43.81
28428;BME280;15662;49.128;8.520;2023-03-16T12:02:53;100561.59;;;16.36;43.34
28428;BME280;15662;49.128;8.520;2023-03-16T12:05:47;100564.06;;;16.41;43.48
28428;BME280;15662;49.128;8.520;2023-03-16T12:11:51;100542.66;;;16.41;42.02
28428;BME280;15662;49.128;8.520;2023-03-16T12:14:33;100550.50;;;16.44;42.41
28428;BME280;15662;49.128;8.520;2023-03-16T12:17:11;100547.06;;;16.42;42.42
28428;BME280;15662;49.128;8.520;2023-03-16T12:22:47;100543.34;;;16.44;42.29
28428;BME280;15662;49.128;8.520;2023-03-16T12:25:43;100539.03;;;16.42;41.29
28428;BME280;15662;49.128;8.520;2023-03-16T12:28:25;100533.81;;;16.39;41.68
28428;BME280;15662;49.128;8.520;2023-03-16T12:34:21;100532.06;;;16.38;40.96
28428;BME280;15662;49.128;8.520;2023-03-16T12:40:24;100531.34;;;16.34;41.44
28428;BME280;15662;49.128;8.520;2023-03-16T12:43:27;100522.38;;;16.35;41.43
28428;BME280;15662;49.128;8.520;2023-03-16T12:48:51;100522.38;;;16.35;41.18
28428;BME280;15662;49.128;8.520;2023-03-16T12:51:36;100521.38;;;16.38;40.83
28428;BME280;15662;49.128;8.520;2023-03-16T12:54:16;100510.59;;;16.39;41.24
28428;BME280;15662;49.128;8.520;2023-03-16T12:56:47;100504.38;;;16.39;40.77
28428;BME280;15662;49.128;8.520;2023-03-16T12:59:22;100501.41;;;16.45;40.45
28428;BME280;15662;49.128;8.520;2023-03-16T13:01:57;100490.78;;;16.43;40.29
28428;BME280;15662;49.128;8.520;2023-03-16T13:04:39;100489.78;;;16.46;39.97
28428;BME280;15662;49.128;8.520;2023-03-16T13:07:27;100490.50;;;16.49;40.43
28428;BME280;15662;49.128;8.520;2023-03-16T13:10:07;100478.13;;;16.47;40.23
28428;BME280;15662;49.128;8.520;2023-03-16T13:12:38;100475.56;;;16.45;40.41
28428;BME280;15662;49.128;8.520;2023-03-16T13:18:02;100471.53;;;16.54;39.98
28428;BME280;15662;49.128;8.520;2023-03-16T13:23:19;100472.13;;;16.61;39.59
28428;BME280;15662;49.128;8.520;2023-03-16T13:26:45;100466.78;;;16.61;39.17
28428;BME280;15662;49.128;8.520;2023-03-16T13:29:24;100463.22;;;16.60;39.15
28428;BME280;15662;49.128;8.520;2023-03-16T13:32:00;100464.00;;;16.62;39.31
28428;BME280;15662;49.128;8.520;2023-03-16T13:34:35;100454.94;;;16.65;39.61
28428;BME280;15662;49.128;8.520;2023-03-16T13:37:13;100449.47;;;16.68;38.99
28428;BME280;15662;49.128;8.520;2023-03-16T13:39:52;100452.00;;;16.71;38.62
28428;BME280;15662;49.128;8.520;2023-03-16T13:42:23;100445.84;;;16.69;39.21
28428;BME280;15662;49.128;8.520;2023-03-16T13:44:56;100446.88;;;16.66;39.04
28428;BME280;15662;49.128;8.520;2023-03-16T13:47:26;100450.75;;;16.78;39.18
28428;BME280;15662;49.128;8.520;2023-03-16T13:49:57;100433.59;;;16.82;39.03
28428;BME280;15662;49.128;8.520;2023-03-16T13:52:32;100428.13;;;16.85;38.59
28428;BME280;15662;49.128;8.520;2023-03-16T13:55:16;100426.84;;;16.92;38.66
28428;BME280;15662;49.128;8.520;2023-03-16T13:57:46;100418.09;;;16.89;38.57
28428;BME280;15662;49.128;8.520;2023-03-16T14:02:50;100406.13;;;16.96;38.47
28428;BME280;15662;49.128;8.520;2023-03-16T14:05:28;100408.41;;;17.03;38.26
28428;BME280;15662;49.128;8.520;2023-03-16T14:07:57;100398.50;;;17.06;38.10
28428;BME280;15662;49.128;8.520;2023-03-16T14:10:33;100399.34;;;17.06;37.52
28428;BME280;15662;49.128;8.520;2023-03-16T14:18:42;100393.91;;;17.25;37.65
28428;BME280;15662;49.128;8.520;2023-03-16T14:21:20;100389.09;;;17.32;37.33
28428;BME280;15662;49.128;8.520;2023-03-16T14:23:59;100379.13;;;17.34;37.00
28428;BME280;15662;49.128;8.520;2023-03-16T14:26:46;100374.56;;;17.36;36.87
28428;BME280;15662;49.128;8.520;2023-03-16T14:29:22;100373.38;;;17.41;37.45
28428;BME280;15662;49.128;8.520;2023-03-16T14:31:54;100384.88;;;17.43;36.88
28428;BME280;15662;49.128;8.520;2023-03-16T14:34:37;100378.50;;;17.46;36.64
28428;BME280;15662;49.128;8.520;2023-03-16T14:37:15;100371.31;;;17.46;36.33
28428;BME280;15662;49.128;8.520;2023-03-16T14:40:00;100370.97;;;17.52;36.90
28428;BME280;15662;49.128;8.520;2023-03-16T14:42:30;100364.75;;;17.52;36.27
28428;BME280;15662;49.128;8.520;2023-03-16T14:45:01;100369.88;;;17.57;36.68
28428;BME280;15662;49.128;8.520;2023-03-16T14:47:41;100368.13;;;17.56;36.28
28428;BME280;15662;49.128;8.520;2023-03-16T14:50:23;100370.47;;;17.62;36.61
28428;BME280;15662;49.128;8.520;2023-03-16T14:52:54;100361.47;;;17.63;36.83
28428;BME280;15662;49.128;8.520;2023-03-16T14:55:23;100367.69;;;17.63;36.43